Time;durP1;ratioP1;P1;durP2;ratioP2;P2;SDS_P1;SDS_P2;PMS_P1;PMS_P2;Temp;Humidity;BMP_temperature;BMP_pressure;BME280_temperature;BME280_humidity;BME280_pressure;Samples;Min_cycle;Max_cycle;Signal;HPM_P1;HPM_P2
2023/09/23 00:02:49;;;;;;;3.17;2.97;;;15.40;99.90;;;;;;10369019;28;20203;-76
2023/09/23 00:07:52;;;;;;;3.50;3.30;;;15.40;99.90;;;;;;10366984;28;20254;-76
2023/09/23 00:12:56;;;;;;;3.27;3.07;;;15.50;99.90;;;;;;10366517;28;20251;-76
2023/09/23 00:17:58;;;;;;;3.03;2.83;;;15.60;99.90;;;;;;10364270;28;21012;-76
2023/09/23 00:23:02;;;;;;;2.77;2.67;;;15.60;99.90;;;;;;10333024;28;20597;-77
2023/09/23 00:28:10;;;;;;;2.60;2.50;;;15.70;99.90;;;;;;10358966;28;20224;-77
2023/09/23 00:33:16;;;;;;;2.60;2.50;;;15.70;99.90;;;;;;10345460;28;20339;-76
2023/09/23 00:38:20;;;;;;;2.40;2.30;;;15.70;99.90;;;;;;10333389;28;20740;-76
2023/09/23 00:43:23;;;;;;;2.43;2.33;;;15.70;99.90;;;;;;10335943;28;20255;-76
2023/09/23 00:48:27;;;;;;;2.80;2.60;;;15.70;99.90;;;;;;10347330;28;20222;-76
2023/09/23 00:53:30;;;;;;;2.40;2.30;;;15.70;99.90;;;;;;10343077;28;20703;-76
2023/09/23 00:58:36;;;;;;;2.67;2.57;;;15.60;99.90;;;;;;10311970;28;20768;-76
2023/09/23 01:03:39;;;;;;;2.70;2.50;;;15.60;99.90;;;;;;10306413;28;20239;-77
2023/09/23 01:08:41;;;;;;;3.17;2.97;;;15.60;99.90;;;;;;10319495;28;20235;-77
2023/09/23 01:13:50;;;;;;;2.60;2.50;;;15.60;99.90;;;;;;10353332;28;20219;-76
2023/09/23 01:18:53;;;;;;;2.30;2.20;;;15.50;99.90;;;;;;10340731;28;20224;-75
2023/09/23 01:23:56;;;;;;;2.40;2.30;;;15.50;99.90;;;;;;10312705;28;20303;-76
2023/09/23 01:28:58;;;;;;;2.40;2.30;;;15.40;99.90;;;;;;10326888;28;20234;-76
2023/09/23 01:34:01;;;;;;;2.73;2.60;;;15.30;99.90;;;;;;10354503;28;20242;-77
2023/09/23 01:39:07;;;;;;;2.53;2.33;;;15.30;99.90;;;;;;10340548;28;20235;-77
2023/09/23 01:44:09;;;;;;;4.43;2.70;;;15.20;99.90;;;;;;10327509;28;20263;-76
2023/09/23 01:49:12;;;;;;;2.20;2.10;;;15.10;99.90;;;;;;10351379;28;20234;-77
2023/09/23 01:54:16;;;;;;;3.03;2.30;;;15.00;99.90;;;;;;10342877;28;20252;-76
2023/09/23 01:59:18;;;;;;;2.30;2.20;;;14.90;99.90;;;;;;10337085;28;20608;-77
2023/09/23 02:04:20;;;;;;;2.37;2.27;;;14.90;99.90;;;;;;10302481;28;20215;-76
2023/09/23 02:09:24;;;;;;;2.53;2.43;;;14.90;99.90;;;;;;10324896;28;20266;-76
2023/09/23 02:14:26;;;;;;;2.20;2.10;;;14.90;99.90;;;;;;10349291;28;20726;-76
2023/09/23 02:19:28;;;;;;;2.43;2.30;;;14.80;99.90;;;;;;10360112;28;20250;-76
2023/09/23 02:24:32;;;;;;;2.33;2.20;;;14.80;99.90;;;;;;10332303;28;20208;-76
2023/09/23 02:29:36;;;;;;;2.50;2.40;;;14.80;99.90;;;;;;10358363;28;20234;-76
2023/09/23 02:34:39;;;;;;;3.07;2.30;;;14.70;99.90;;;;;;10338046;28;20799;-77
2023/09/23 02:39:43;;;;;;;2.80;2.70;;;14.60;99.90;;;;;;10337900;28;20227;-76
2023/09/23 02:44:45;;;;;;;2.60;2.30;;;14.60;99.90;;;;;;10344103;28;20200;-76
2023/09/23 02:49:47;;;;;;;2.43;2.30;;;14.50;99.90;;;;;;10348918;28;20227;-76
2023/09/23 02:54:53;;;;;;;2.57;2.47;;;14.50;99.90;;;;;;10339957;28;20646;-76
2023/09/23 02:59:57;;;;;;;2.50;2.30;;;14.40;99.90;;;;;;10316774;28;20223;-76
2023/09/23 03:05:07;;;;;;;2.40;2.30;;;14.40;99.90;;;;;;10332417;28;20218;-76
2023/09/23 03:10:13;;;;;;;2.43;2.33;;;14.50;99.90;;;;;;10333398;28;20236;-76
2023/09/23 03:15:15;;;;;;;2.23;2.10;;;14.50;99.90;;;;;;10350430;28;20227;-75
2023/09/23 03:20:21;;;;;;;2.50;2.27;;;14.50;99.90;;;;;;10369289;28;20584;-76
2023/09/23 03:25:25;;;;;;;2.80;2.70;;;14.50;99.90;;;;;;10312005;28;20200;-76
2023/09/23 03:30:28;;;;;;;2.40;2.20;;;14.50;99.90;;;;;;10320198;28;20238;-76
2023/09/23 03:35:36;;;;;;;2.43;2.33;;;14.50;99.90;;;;;;10351707;28;20253;-76
2023/09/23 03:40:39;;;;;;;2.40;2.30;;;14.60;99.90;;;;;;10352182;28;20239;-76
2023/09/23 03:45:42;;;;;;;1.50;1.50;;;14.60;99.90;;;;;;10351456;28;20317;-76
2023/09/23 03:50:44;;;;;;;1.87;1.77;;;14.60;99.90;;;;;;10341719;28;20203;-76
2023/09/23 03:55:49;;;;;;;1.70;1.60;;;14.60;99.90;;;;;;10315515;28;20318;-76
2023/09/23 04:00:51;;;;;;;1.90;1.80;;;14.50;99.90;;;;;;10331679;28;20581;-76
2023/09/23 04:05:55;;;;;;;2.17;2.07;;;14.50;99.90;;;;;;10324921;28;20227;-76
2023/09/23 04:11:03;;;;;;;1.80;1.70;;;14.50;99.90;;;;;;10326844;28;20207;-76
2023/09/23 04:16:05;;;;;;;1.60;1.50;;;14.40;99.90;;;;;;10365473;28;20306;-77
2023/09/23 04:21:08;;;;;;;1.90;1.80;;;14.40;99.90;;;;;;10328597;28;20188;-76
2023/09/23 04:26:12;;;;;;;1.83;1.73;;;14.40;99.90;;;;;;10328125;28;20231;-76
2023/09/23 04:31:15;;;;;;;2.70;1.90;;;14.30;99.90;;;;;;10323334;28;20214;-76
2023/09/23 04:36:17;;;;;;;3.27;1.70;;;14.30;99.90;;;;;;10334227;28;20924;-77
2023/09/23 04:41:20;;;;;;;2.53;2.10;;;14.30;99.90;;;;;;10318252;28;20207;-76
2023/09/23 04:46:22;;;;;;;2.70;1.67;;;14.30;99.90;;;;;;10348799;28;20646;-76
2023/09/23 04:51:25;;;;;;;1.57;1.57;;;14.20;99.90;;;;;;10339221;28;20203;-76
2023/09/23 04:56:29;;;;;;;2.20;2.00;;;14.20;99.90;;;;;;10330981;28;20228;-77
2023/09/23 05:01:31;;;;;;;1.50;1.40;;;14.20;99.90;;;;;;10373927;28;20211;-76
2023/09/23 05:06:35;;;;;;;2.33;2.00;;;14.30;99.90;;;;;;10320136;28;20274;-76
2023/09/23 05:11:38;;;;;;;1.90;1.80;;;14.30;99.90;;;;;;10339008;28;20238;-76
2023/09/23 05:16:40;;;;;;;1.70;1.60;;;14.40;99.90;;;;;;10350556;28;20299;-76
2023/09/23 05:21:45;;;;;;;1.90;1.80;;;14.40;99.90;;;;;;10358092;28;20208;-76
2023/09/23 05:26:49;;;;;;;1.70;1.60;;;14.40;99.90;;;;;;10344024;28;20792;-77
2023/09/23 05:31:52;;;;;;;2.13;1.93;;;14.50;99.90;;;;;;10338751;28;20218;-76
2023/09/23 05:36:54;;;;;;;2.00;1.90;;;14.50;99.90;;;;;;10351257;28;20229;-77
2023/09/23 05:41:58;;;;;;;1.97;1.77;;;14.60;99.90;;;;;;10340904;28;20207;-76
2023/09/23 05:47:00;;;;;;;1.80;1.70;;;14.60;99.90;;;;;;10377187;28;20235;-77
2023/09/23 05:52:03;;;;;;;1.50;1.40;;;14.70;99.90;;;;;;10369684;28;20589;-76
2023/09/23 05:57:07;;;;;;;1.70;1.60;;;14.70;99.90;;;;;;10339476;28;20235;-77
2023/09/23 06:02:09;;;;;;;5.90;2.23;;;14.70;99.90;;;;;;10338931;28;20550;-77
2023/09/23 06:07:11;;;;;;;1.97;1.50;;;14.70;99.90;;;;;;10338536;28;20242;-77
2023/09/23 06:12:15;;;;;;;1.70;1.60;;;14.70;99.90;;;;;;10336453;28;20208;-77
2023/09/23 06:17:17;;;;;;;1.40;1.30;;;14.80;99.90;;;;;;10345995;28;20227;-77
2023/09/23 06:22:19;;;;;;;1.73;1.63;;;14.90;99.90;;;;;;10338422;28;20200;-76
2023/09/23 06:27:22;;;;;;;1.60;1.50;;;14.90;99.90;;;;;;10336148;28;20700;-76
2023/09/23 06:32:24;;;;;;;1.90;1.80;;;15.00;99.90;;;;;;10372979;28;20250;-77
2023/09/23 06:37:26;;;;;;;1.93;1.83;;;15.10;99.90;;;;;;10360168;28;20226;-77
2023/09/23 06:42:30;;;;;;;2.10;2.00;;;15.20;99.90;;;;;;10365195;28;20200;-77
2023/09/23 06:47:32;;;;;;;1.90;1.80;;;15.30;99.90;;;;;;10400865;28;20227;-77
2023/09/23 06:52:34;;;;;;;3.37;2.00;;;15.40;99.90;;;;;;10385747;28;20227;-76
2023/09/23 06:57:38;;;;;;;3.30;1.77;;;15.50;99.90;;;;;;10353115;28;20259;-76
2023/09/23 07:02:40;;;;;;;1.87;1.77;;;15.60;99.90;;;;;;10386522;28;20209;-77
2023/09/23 07:07:42;;;;;;;2.20;1.83;;;15.80;99.90;;;;;;10379474;28;20239;-76
2023/09/23 07:12:46;;;;;;;1.50;1.40;;;15.90;99.90;;;;;;10336660;28;20223;-76
2023/09/23 07:17:48;;;;;;;1.50;1.40;;;16.10;99.90;;;;;;10365927;28;20323;-77
2023/09/23 07:22:50;;;;;;;2.30;1.77;;;16.10;99.90;;;;;;10356791;28;20266;-77
2023/09/23 07:27:53;;;;;;;2.60;1.70;;;16.30;99.90;;;;;;10360975;28;20247;-77
2023/09/23 07:32:55;;;;;;;1.60;1.50;;;16.40;99.90;;;;;;10359174;28;20223;-76
2023/09/23 07:37:59;;;;;;;1.30;1.20;;;16.50;99.90;;;;;;10367064;28;20229;-76
2023/09/23 07:43:02;;;;;;;1.50;1.40;;;16.60;99.90;;;;;;10343381;28;20199;-77
2023/09/23 07:48:07;;;;;;;2.03;1.80;;;16.70;99.90;;;;;;10368296;28;20669;-76
2023/09/23 07:53:09;;;;;;;3.17;1.60;;;16.80;99.90;;;;;;10366525;28;20218;-77
2023/09/23 07:58:13;;;;;;;1.20;1.10;;;16.90;99.90;;;;;;10365091;28;20231;-77
2023/09/23 08:03:15;;;;;;;3.17;1.60;;;16.90;99.90;;;;;;10346999;28;20267;-76
2023/09/23 08:08:17;;;;;;;1.20;1.10;;;17.00;99.90;;;;;;10339002;28;20250;-77
2023/09/23 08:13:22;;;;;;;1.20;1.10;;;17.00;99.90;;;;;;10359084;28;20227;-76
2023/09/23 08:18:24;;;;;;;2.40;1.30;;;16.90;99.90;;;;;;10368046;28;20590;-76
2023/09/23 08:23:26;;;;;;;2.70;1.60;;;16.80;99.90;;;;;;10356902;28;20250;-76
2023/09/23 08:28:30;;;;;;;2.00;1.00;;;16.80;99.90;;;;;;10363064;28;20223;-75
2023/09/23 08:33:33;;;;;;;1.43;1.33;;;16.80;99.60;;;;;;10354875;28;20219;-76
2023/09/23 08:38:35;;;;;;;1.60;1.50;;;16.70;99.90;;;;;;10349696;28;20233;-76
2023/09/23 08:43:41;;;;;;;1.40;1.30;;;16.70;99.10;;;;;;10325707;28;20212;-75
2023/09/23 08:48:44;;;;;;;1.40;1.30;;;16.70;98.90;;;;;;10348358;28;20235;-76
2023/09/23 08:53:47;;;;;;;1.33;1.20;;;16.70;98.60;;;;;;10334065;28;20235;-76
2023/09/23 08:58:51;;;;;;;2.60;1.57;;;16.70;99.50;;;;;;10339848;28;20239;-75
2023/09/23 09:03:53;;;;;;;2.63;1.40;;;16.70;99.50;;;;;;10330627;28;20203;-77
2023/09/23 09:08:55;;;;;;;1.73;1.63;;;16.70;99.40;;;;;;10392175;23;20709;-79
2023/09/23 09:13:59;;;;;;;1.47;1.37;;;16.70;98.40;;;;;;10412033;28;20716;-79
2023/09/23 09:19:01;;;;;;;1.97;1.80;;;16.70;98.60;;;;;;10390797;28;20285;-80
2023/09/23 09:24:04;;;;;;;1.50;1.40;;;16.80;99.40;;;;;;10385985;28;20210;-80
2023/09/23 09:29:07;;;;;;;1.50;1.30;;;16.80;99.40;;;;;;10382705;28;20231;-81
2023/09/23 09:34:11;;;;;;;1.70;1.60;;;16.90;98.50;;;;;;10384210;28;20223;-80
2023/09/23 09:39:17;;;;;;;1.47;1.40;;;17.00;98.60;;;;;;10394809;28;20233;-80
2023/09/23 09:44:23;;;;;;;1.40;1.30;;;17.10;97.80;;;;;;10372989;28;20199;-80
2023/09/23 09:49:25;;;;;;;1.40;1.30;;;17.30;96.70;;;;;;10396051;28;20219;-79
2023/09/23 09:54:28;;;;;;;2.10;1.50;;;17.40;96.80;;;;;;10390632;28;20261;-80
2023/09/23 09:59:32;;;;;;;1.33;1.23;;;17.60;97.00;;;;;;10386178;28;20227;-80
2023/09/23 10:04:34;;;;;;;1.30;1.20;;;17.70;96.30;;;;;;10373623;28;20634;-80
2023/09/23 10:09:38;;;;;;;1.60;1.50;;;17.70;96.40;;;;;;10395293;28;20614;-80
2023/09/23 10:14:53;;;;;;;2.70;1.60;;;17.70;95.70;;;;;;10388007;28;20303;-80
2023/09/23 10:19:56;;;;;;;3.83;1.80;;;17.80;96.60;;;;;;10381914;28;20287;-80
2023/09/23 10:25:03;;;;;;;1.73;1.63;;;17.90;94.80;;;;;;10384726;28;20203;-79
2023/09/23 10:30:08;;;;;;;1.40;1.30;;;17.90;95.60;;;;;;10383843;28;20254;-79
2023/09/23 10:35:10;;;;;;;1.50;1.40;;;18.00;95.00;;;;;;10386924;28;20305;-79
2023/09/23 10:40:12;;;;;;;2.03;1.50;;;18.20;95.80;;;;;;10374054;28;20679;-79
2023/09/23 10:45:17;;;;;;;2.50;1.63;;;18.50;95.60;;;;;;10390097;28;20227;-79
2023/09/23 10:50:20;;;;;;;5.00;1.60;;;18.80;95.80;;;;;;10383751;28;20231;-78
2023/09/23 10:55:23;;;;;;;4.80;1.53;;;19.00;92.90;;;;;;10403082;28;20234;-80
2023/09/23 11:00:28;;;;;;;2.23;1.57;;;18.90;94.10;;;;;;10405518;28;20215;-79
2023/09/23 11:05:30;;;;;;;1.67;1.43;;;18.80;93.70;;;;;;10389772;28;20230;-80
2023/09/23 11:10:32;;;;;;;2.70;1.70;;;18.80;94.30;;;;;;10385112;28;20239;-79
2023/09/23 11:15:36;;;;;;;1.83;1.43;;;18.80;94.50;;;;;;10379566;28;20219;-79
2023/09/23 11:20:42;;;;;;;1.57;1.47;;;18.90;92.70;;;;;;10379794;28;20231;-79
2023/09/23 11:25:46;;;;;;;1.60;1.50;;;18.90;94.30;;;;;;10396498;28;20206;-78
2023/09/23 11:30:51;;;;;;;1.90;1.40;;;18.90;95.80;;;;;;10374423;28;20217;-79
2023/09/23 11:35:54;;;;;;;1.40;1.30;;;18.90;93.60;;;;;;10380758;28;20234;-79
2023/09/23 11:40:57;;;;;;;1.17;1.10;;;18.80;94.50;;;;;;10390786;28;20210;-79
2023/09/23 11:46:01;;;;;;;1.60;1.50;;;18.70;94.70;;;;;;10382103;28;20211;-79
2023/09/23 11:51:03;;;;;;;1.50;1.20;;;18.80;94.60;;;;;;10378354;28;20712;-79
2023/09/23 11:56:05;;;;;;;2.57;1.40;;;18.90;94.30;;;;;;10384606;28;20239;-80
2023/09/23 12:01:09;;;;;;;2.80;1.80;;;19.00;94.90;;;;;;10384570;28;20211;-80
2023/09/23 12:06:11;;;;;;;2.07;1.50;;;19.10;94.30;;;;;;10384856;28;20609;-80
2023/09/23 12:11:13;;;;;;;2.20;1.73;;;19.10;94.70;;;;;;10361209;28;20208;-80
2023/09/23 12:16:17;;;;;;;3.20;1.30;;;19.10;94.90;;;;;;10352500;28;20245;-80
2023/09/23 12:21:19;;;;;;;1.53;1.43;;;19.00;94.60;;;;;;10376583;28;20202;-80
2023/09/23 12:26:22;;;;;;;1.50;1.40;;;19.10;94.40;;;;;;10362646;28;20286;-79
2023/09/23 12:31:25;;;;;;;2.37;1.90;;;19.00;94.40;;;;;;10357873;28;20223;-80
2023/09/23 12:36:27;;;;;;;1.80;1.70;;;19.10;93.90;;;;;;10374384;28;20223;-79
2023/09/23 12:41:30;;;;;;;1.20;1.10;;;19.10;93.50;;;;;;10363657;28;20234;-80
2023/09/23 12:46:33;;;;;;;1.50;1.40;;;19.10;93.70;;;;;;10375819;28;20669;-80
2023/09/23 12:51:38;;;;;;;3.33;1.47;;;19.10;93.30;;;;;;10387072;28;20203;-80
2023/09/23 12:56:40;;;;;;;1.87;1.30;;;19.00;94.10;;;;;;10381332;28;20285;-80
2023/09/23 13:01:44;;;;;;;1.53;1.37;;;19.00;93.80;;;;;;10365676;28;20211;-80
2023/09/23 13:06:47;;;;;;;1.27;1.17;;;19.10;92.50;;;;;;10381253;28;20706;-80
2023/09/23 13:11:49;;;;;;;2.17;1.40;;;19.20;91.50;;;;;;10369365;28;20325;-80
2023/09/23 13:16:53;;;;;;;2.17;1.63;;;19.40;90.50;;;;;;10372681;28;20238;-80
2023/09/23 13:21:57;;;;;;;1.10;1.07;;;19.50;90.10;;;;;;10365613;28;20223;-80
2023/09/23 13:26:59;;;;;;;2.10;1.40;;;19.50;90.50;;;;;;10380623;28;20230;-80
2023/09/23 13:32:03;;;;;;;1.30;1.20;;;19.50;91.30;;;;;;10388646;28;20198;-80
2023/09/23 13:37:05;;;;;;;1.40;1.30;;;19.40;91.00;;;;;;10384569;28;20238;-79
2023/09/23 13:42:07;;;;;;;3.27;1.33;;;19.50;91.20;;;;;;10394191;28;20620;-79
2023/09/23 13:47:11;;;;;;;1.50;1.30;;;19.40;90.20;;;;;;10387555;28;20222;-79
2023/09/23 13:52:13;;;;;;;1.00;1.00;;;19.40;91.00;;;;;;10392442;28;20234;-79
2023/09/23 13:57:15;;;;;;;2.33;1.23;;;19.30;91.70;;;;;;10382389;28;20238;-79
2023/09/23 14:02:19;;;;;;;2.07;1.87;;;19.20;91.90;;;;;;10384682;28;20203;-79
2023/09/23 14:07:21;;;;;;;2.30;1.43;;;19.10;91.90;;;;;;10379197;28;20226;-79
2023/09/23 14:12:26;;;;;;;1.67;1.20;;;19.00;92.50;;;;;;10380130;28;20212;-79
2023/09/23 14:17:30;;;;;;;2.83;1.33;;;19.10;91.60;;;;;;10375205;28;20223;-80
2023/09/23 14:22:32;;;;;;;7.13;1.97;;;19.10;91.50;;;;;;10383373;28;20258;-80
2023/09/23 14:27:34;;;;;;;1.33;1.00;;;19.10;91.30;;;;;;10368695;28;20601;-80
2023/09/23 14:32:37;;;;;;;1.17;1.07;;;19.00;90.40;;;;;;10381708;28;20206;-80
2023/09/23 14:37:40;;;;;;;1.67;1.50;;;19.00;91.40;;;;;;10365277;28;20242;-79
2023/09/23 14:42:42;;;;;;;2.20;1.30;;;18.90;90.20;;;;;;10388389;28;20637;-79
2023/09/23 14:47:45;;;;;;;1.53;1.43;;;18.90;92.90;;;;;;10383042;28;20246;-79
2023/09/23 14:52:48;;;;;;;1.50;1.40;;;18.90;92.30;;;;;;10379995;28;20211;-79
2023/09/23 14:57:50;;;;;;;2.50;1.80;;;19.00;91.90;;;;;;10387352;28;20310;-80
2023/09/23 15:02:53;;;;;;;2.10;1.90;;;19.00;91.60;;;;;;10391162;28;20227;-79
2023/09/23 15:07:55;;;;;;;6.43;2.10;;;19.00;92.00;;;;;;10410085;22;20239;-82
2023/09/23 15:12:59;;;;;;;1.30;1.20;;;19.00;91.70;;;;;;10388322;28;20208;-82
2023/09/23 15:18:03;;;;;;;1.83;1.30;;;19.00;91.70;;;;;;10419424;28;20249;-81
2023/09/23 15:23:05;;;;;;;2.30;2.10;;;19.00;92.00;;;;;;10406177;28;20212;-81
2023/09/23 15:28:08;;;;;;;1.90;1.80;;;19.10;92.10;;;;;;10404940;28;20245;-82
2023/09/23 15:33:12;;;;;;;2.10;1.43;;;19.10;91.50;;;;;;10407689;28;20314;-82
2023/09/23 15:38:15;;;;;;;2.27;1.30;;;19.20;92.00;;;;;;10378234;28;20227;-82
2023/09/23 15:43:17;;;;;;;2.50;1.80;;;19.30;91.50;;;;;;10374087;28;20198;-82
2023/09/23 15:48:20;;;;;;;1.87;1.53;;;19.30;91.80;;;;;;10418228;28;20227;-82
2023/09/23 15:53:22;;;;;;;3.97;1.90;;;19.30;91.80;;;;;;10419313;28;20262;-82
2023/09/23 15:58:25;;;;;;;1.67;1.57;;;19.30;92.10;;;;;;10393520;28;20693;-81
2023/09/23 16:03:30;;;;;;;1.40;1.30;;;19.20;91.80;;;;;;10413789;28;20217;-82
2023/09/23 16:08:32;;;;;;;2.30;1.50;;;19.10;92.00;;;;;;10392486;28;20223;-82
2023/09/23 16:13:34;;;;;;;1.50;1.40;;;19.00;91.50;;;;;;10361797;28;20291;-82
2023/09/23 16:18:38;;;;;;;2.17;1.33;;;18.80;92.20;;;;;;10396363;28;20242;-81
2023/09/23 16:23:40;;;;;;;1.73;1.50;;;18.70;92.20;;;;;;10345079;28;20203;-81
2023/09/23 16:28:42;;;;;;;2.07;1.63;;;18.70;91.20;;;;;;10364291;28;20643;-81
2023/09/23 16:33:45;;;;;;;1.43;1.33;;;18.60;92.40;;;;;;10377976;28;20214;-82
2023/09/23 16:38:48;;;;;;;1.33;1.20;;;18.50;92.10;;;;;;10381763;28;20284;-81
2023/09/23 16:43:50;;;;;;;2.23;1.50;;;18.50;92.50;;;;;;10384584;28;20218;-81
2023/09/23 16:48:53;;;;;;;1.60;1.47;;;18.40;92.80;;;;;;10408330;28;20241;-82
2023/09/23 16:53:56;;;;;;;1.70;1.53;;;18.30;92.80;;;;;;10413719;28;20612;-82
2023/09/23 16:58:59;;;;;;;2.70;2.50;;;18.20;94.00;;;;;;10433763;28;20230;-81
2023/09/23 17:04:03;;;;;;;2.67;2.47;;;18.20;94.10;;;;;;10392782;28;20210;-81
2023/09/23 17:09:05;;;;;;;3.10;1.77;;;18.10;93.90;;;;;;10371981;28;20219;-81
2023/09/23 17:14:07;;;;;;;1.60;1.50;;;18.00;93.70;;;;;;10403138;28;20266;-81
2023/09/23 17:19:10;;;;;;;2.47;2.27;;;17.90;94.40;;;;;;10426121;28;20302;-81
2023/09/23 17:24:13;;;;;;;3.00;2.03;;;17.90;95.00;;;;;;10387220;28;20215;-81
2023/09/23 17:29:16;;;;;;;2.57;2.37;;;17.80;94.90;;;;;;10384497;28;20254;-81
2023/09/23 17:34:20;;;;;;;2.70;2.20;;;17.80;95.20;;;;;;10382777;28;20686;-81
2023/09/23 17:39:22;;;;;;;2.60;2.40;;;17.70;94.70;;;;;;10395015;28;20231;-81
2023/09/23 17:44:25;;;;;;;3.40;2.93;;;17.70;95.20;;;;;;10418837;28;20217;-82
2023/09/23 17:49:28;;;;;;;3.07;2.77;;;17.60;95.60;;;;;;10404407;28;20217;-81
2023/09/23 17:54:30;;;;;;;4.53;3.50;;;17.60;94.70;;;;;;10387462;28;20297;-81
2023/09/23 17:59:33;;;;;;;5.10;4.07;;;17.50;95.20;;;;;;10386784;28;20249;-82
2023/09/23 18:04:38;;;;;;;3.73;3.43;;;17.40;95.70;;;;;;10420106;28;20221;-81
2023/09/23 18:09:40;;;;;;;4.27;3.70;;;17.30;95.80;;;;;;10419407;28;20226;-80
2023/09/23 18:14:42;;;;;;;4.03;3.63;;;17.20;96.00;;;;;;10396045;28;20206;-79
2023/09/23 18:19:45;;;;;;;4.27;3.97;;;17.00;96.00;;;;;;10422401;28;20637;-82
2023/09/23 18:24:48;;;;;;;4.53;4.13;;;16.90;96.30;;;;;;10422232;28;20209;-81
2023/09/23 18:29:50;;;;;;;7.53;4.93;;;16.90;96.60;;;;;;10413318;28;20222;-80
2023/09/23 18:34:54;;;;;;;5.50;4.73;;;16.80;96.80;;;;;;10402655;28;20207;-81
2023/09/23 18:39:57;;;;;;;3.03;2.73;;;16.80;97.00;;;;;;10384235;28;20579;-81
2023/09/23 18:44:59;;;;;;;2.87;2.67;;;16.80;97.20;;;;;;10406257;28;20205;-82
2023/09/23 18:50:03;;;;;;;2.47;2.27;;;16.80;97.00;;;;;;10413908;28;20226;-81
2023/09/23 18:55:05;;;;;;;2.27;2.17;;;16.90;96.90;;;;;;10386190;28;20221;-81
2023/09/23 19:00:10;;;;;;;4.63;2.63;;;17.00;96.60;;;;;;10388270;28;20712;-81
2023/09/23 19:05:14;;;;;;;3.93;2.47;;;17.00;96.70;;;;;;10417529;28;20208;-81
2023/09/23 19:10:16;;;;;;;2.60;2.40;;;17.00;96.60;;;;;;10387707;28;20235;-80
2023/09/23 19:15:18;;;;;;;3.93;2.80;;;17.10;96.50;;;;;;10401057;28;20227;-82
2023/09/23 19:20:22;;;;;;;7.43;2.53;;;17.10;96.50;;;;;;10393462;28;20234;-81
2023/09/23 19:25:24;;;;;;;2.20;2.10;;;17.10;96.10;;;;;;10382973;28;20199;-81
2023/09/23 19:30:26;;;;;;;4.47;2.70;;;17.10;96.60;;;;;;10382694;28;20215;-80
2023/09/23 19:35:31;;;;;;;3.10;2.90;;;17.00;96.70;;;;;;10384362;28;20297;-78
2023/09/23 19:40:33;;;;;;;4.97;2.53;;;17.00;96.90;;;;;;10396983;28;20253;-82
2023/09/23 19:45:36;;;;;;;2.70;2.50;;;16.90;97.30;;;;;;10384566;28;20195;-82
2023/09/23 19:50:42;;;;;;;2.80;2.60;;;16.90;97.70;;;;;;10380892;28;20721;-81
2023/09/23 19:55:44;;;;;;;4.83;3.37;;;16.90;97.90;;;;;;10387192;28;20788;-82
2023/09/23 20:00:47;;;;;;;4.03;2.77;;;16.90;98.00;;;;;;10399594;28;20318;-82
2023/09/23 20:05:51;;;;;;;3.40;3.10;;;16.90;97.80;;;;;;10351933;28;20563;-82
2023/09/23 20:10:58;;;;;;;2.93;2.63;;;16.90;98.00;;;;;;10409735;28;20231;-81
2023/09/23 20:16:01;;;;;;;2.97;2.77;;;16.90;98.20;;;;;;10397056;28;20230;-81
2023/09/23 20:21:05;;;;;;;6.00;2.93;;;16.80;98.10;;;;;;10369980;28;20281;-81
2023/09/23 20:26:07;;;;;;;2.70;2.50;;;16.80;98.30;;;;;;10378515;28;20214;-81
2023/09/23 20:31:11;;;;;;;2.40;2.10;;;16.80;98.40;;;;;;10379830;28;20694;-81
2023/09/23 20:36:15;;;;;;;2.23;2.10;;;16.80;98.30;;;;;;10410351;28;20230;-81
2023/09/23 20:41:17;;;;;;;2.23;2.07;;;16.70;98.60;;;;;;10381456;28;20732;-81
2023/09/23 20:46:19;;;;;;;2.50;2.40;;;16.80;98.60;;;;;;10412118;28;20197;-80
2023/09/23 20:51:23;;;;;;;2.60;2.00;;;16.80;98.70;;;;;;10389159;28;20211;-82
2023/09/23 20:56:25;;;;;;;2.60;2.40;;;16.70;99.20;;;;;;10384382;28;20602;-81
2023/09/23 21:01:27;;;;;;;2.20;2.10;;;16.60;99.90;;;;;;10387657;28;20203;-81
2023/09/23 21:06:31;;;;;;;5.17;2.63;;;16.60;99.90;;;;;;10384750;28;20318;-82
2023/09/23 21:11:34;;;;;;;4.83;2.70;;;16.60;99.90;;;;;;10386464;28;20218;-80
2023/09/23 21:16:45;;;;;;;4.60;2.50;;;16.60;99.90;;;;;;10417004;23;20253;-80
2023/09/23 21:21:52;;;;;;;2.53;2.30;;;16.60;99.90;;;;;;10350104;28;20259;-79
2023/09/23 21:26:54;;;;;;;3.67;2.37;;;16.60;99.90;;;;;;10343169;28;20227;-80
2023/09/23 21:31:57;;;;;;;2.83;2.30;;;16.60;99.90;;;;;;10314936;28;20614;-80
2023/09/23 21:37:01;;;;;;;2.60;2.07;;;16.60;99.90;;;;;;10307395;28;20233;-79
2023/09/23 21:42:03;;;;;;;2.87;2.60;;;16.60;99.90;;;;;;10283728;28;20212;-80
2023/09/23 21:47:05;;;;;;;2.30;2.10;;;16.60;99.80;;;;;;10302840;28;20228;-79
2023/09/23 21:52:08;;;;;;;2.73;2.00;;;16.60;99.90;;;;;;10329667;28;20228;-79
2023/09/23 21:57:10;;;;;;;3.83;2.10;;;16.50;99.90;;;;;;10315019;28;20224;-79
2023/09/23 22:02:13;;;;;;;2.37;2.17;;;16.50;99.60;;;;;;10327553;28;20268;-79
2023/09/23 22:07:16;;;;;;;3.23;2.10;;;16.50;99.20;;;;;;10314750;28;20228;-79
2023/09/23 22:12:18;;;;;;;2.33;2.13;;;16.50;99.20;;;;;;10310029;28;20220;-79
2023/09/23 22:17:25;;;;;;;1.93;1.83;;;16.50;99.40;;;;;;10332448;28;20263;-79
2023/09/23 22:22:29;;;;;;;3.63;2.20;;;16.50;99.70;;;;;;10318078;28;20219;-79
2023/09/23 22:27:31;;;;;;;2.37;2.00;;;16.50;99.60;;;;;;10304796;28;20589;-79
2023/09/23 22:32:33;;;;;;;2.60;2.40;;;16.40;99.70;;;;;;10308055;28;20219;-79
2023/09/23 22:38:02;;;;;;;1.53;1.43;;;16.30;99.60;;;;;;10395238;23;20649;-79
2023/09/23 22:43:24;;;;;;;3.87;2.20;;;16.30;99.70;;;;;;10387514;28;20284;-80
2023/09/23 22:48:36;;;;;;;2.80;2.30;;;16.10;99.60;;;;;;10367637;28;20211;-80
2023/09/23 22:53:58;;;;;;;2.23;2.13;;;16.00;99.40;;;;;;10344807;28;20258;-79
2023/09/23 22:59:10;;;;;;;2.77;2.57;;;15.90;99.20;;;;;;10374857;28;20231;-79
2023/09/23 23:04:15;;;;;;;3.77;2.30;;;15.80;99.40;;;;;;10348902;28;20224;-79
2023/09/23 23:09:24;;;;;;;4.07;2.20;;;15.70;99.50;;;;;;10345868;28;20196;-79
2023/09/23 23:14:32;;;;;;;2.53;2.33;;;15.70;99.60;;;;;;10372374;28;20644;-79
2023/09/23 23:19:35;;;;;;;2.40;2.20;;;15.60;99.70;;;;;;10363678;28;20231;-80
2023/09/23 23:24:40;;;;;;;4.87;2.40;;;15.50;99.70;;;;;;10357830;28;20254;-79
2023/09/23 23:29:42;;;;;;;2.50;2.40;;;15.40;99.70;;;;;;10324594;28;20262;-79
2023/09/23 23:34:44;;;;;;;2.17;1.97;;;15.40;99.90;;;;;;10366134;28;20247;-80
2023/09/23 23:39:50;;;;;;;2.50;2.30;;;15.30;99.80;;;;;;10340136;28;20242;-80
2023/09/23 23:44:52;;;;;;;2.00;1.90;;;15.30;99.90;;;;;;10329902;28;20719;-79
2023/09/23 23:49:58;;;;;;;2.70;2.50;;;15.20;99.90;;;;;;10355339;28;20566;-80
2023/09/23 23:55:03;;;;;;;3.27;2.50;;;15.10;99.90;;;;;;10356049;28;20753;-79
